Time;durP1;ratioP1;P1;durP2;ratioP2;P2;SDS_P1;SDS_P2;PMS_P1;PMS_P2;Temp;Humidity;BMP_temperature;BMP_pressure;BME280_temperature;BME280_humidity;BME280_pressure;Samples;Min_cycle;Max_cycle;Signal;HPM_P1;HPM_P2
2023/01/07 00:01:06;;;;;;;;;;;;;;;7.94;100.00;96966.38;5076111;28;20389;-72
2023/01/07 00:03:32;;;;;;;;;;;;;;;7.92;100.00;96971.78;5075968;28;19946;-72
2023/01/07 00:06:01;;;;;;;;;;;;;;;7.93;100.00;96970.78;5075860;28;19958;-72
2023/01/07 00:08:28;;;;;;;;;;;;;;;7.90;100.00;96973.78;5075821;28;19946;-72
2023/01/07 00:10:54;;;;;;;;;;;;;;;7.90;100.00;96976.38;5076467;28;19951;-72
2023/01/07 00:13:20;;;;;;;;;;;;;;;7.89;100.00;96976.56;5075829;28;20396;-72
2023/01/07 00:15:46;;;;;;;;;;;;;;;7.88;100.00;96980.19;5075936;28;19966;-72
2023/01/07 00:18:12;;;;;;;;;;;;;;;7.89;100.00;96968.72;5075663;28;19946;-73
2023/01/07 00:20:38;;;;;;;;;;;;;;;7.89;100.00;96968.72;5075872;28;20004;-72
2023/01/07 00:23:03;;;;;;;;;;;;;;;7.89;100.00;96971.34;5075301;28;19953;-72
2023/01/07 00:25:30;;;;;;;;;;;;;;;7.85;100.00;96970.94;5075851;28;19948;-72
2023/01/07 00:27:56;;;;;;;;;;;;;;;7.83;100.00;96964.25;5075280;28;19961;-72
2023/01/07 00:30:21;;;;;;;;;;;;;;;7.82;100.00;96968.69;5075830;28;19965;-72
2023/01/07 00:35:28;;;;;;;;;;;;;;;7.84;100.00;96965.88;5075955;28;19948;-72
2023/01/07 00:37:54;;;;;;;;;;;;;;;7.84;100.00;96960.66;5075632;28;19950;-72
2023/01/07 00:40:20;;;;;;;;;;;;;;;7.85;100.00;96949.22;5075006;28;19978;-72
2023/01/07 00:43:00;;;;;;;;;;;;;;;7.85;100.00;96955.25;5075521;28;20030;-72
2023/01/07 00:45:28;;;;;;;;;;;;;;;7.85;100.00;96955.25;5061666;28;19949;-72
2023/01/07 00:47:54;;;;;;;;;;;;;;;7.85;100.00;96947.41;5074943;28;20392;-72
2023/01/07 00:50:20;;;;;;;;;;;;;;;7.86;100.00;96943.81;5075047;28;19956;-72
2023/01/07 00:52:47;;;;;;;;;;;;;;;7.87;100.00;96948.03;5075005;28;19947;-73
2023/01/07 00:55:15;;;;;;;;;;;;;;;7.85;100.00;96944.81;5074923;28;19963;-72
2023/01/07 00:57:42;;;;;;;;;;;;;;;7.86;100.00;96943.00;5074981;28;20034;-72
2023/01/07 01:00:09;;;;;;;;;;;;;;;7.87;100.00;96944.59;5074866;28;19946;-72
2023/01/07 01:02:34;;;;;;;;;;;;;;;7.85;100.00;96931.75;5075206;28;20408;-72
2023/01/07 01:05:00;;;;;;;;;;;;;;;7.84;100.00;96932.75;5074861;28;19944;-72
2023/01/07 01:07:26;;;;;;;;;;;;;;;7.85;100.00;96933.53;5074736;28;19945;-72
2023/01/07 01:09:52;;;;;;;;;;;;;;;7.85;100.00;96936.16;5074625;28;19955;-72
2023/01/07 01:12:18;;;;;;;;;;;;;;;7.84;100.00;96930.13;5074615;28;19952;-72
2023/01/07 01:14:44;;;;;;;;;;;;;;;7.85;100.00;96928.31;5073228;28;19992;-72
2023/01/07 01:17:10;;;;;;;;;;;;;;;7.84;100.00;96922.28;5074628;28;19952;-72
2023/01/07 01:19:36;;;;;;;;;;;;;;;7.84;100.00;96924.09;5074390;28;19995;-72
2023/01/07 01:22:02;;;;;;;;;;;;;;;7.84;100.00;96919.69;5074413;28;19974;-72
2023/01/07 01:24:27;;;;;;;;;;;;;;;7.83;100.00;96915.47;5074424;28;19953;-72
2023/01/07 01:26:53;;;;;;;;;;;;;;;7.82;100.00;96915.66;5074359;28;20331;-72
2023/01/07 01:29:19;;;;;;;;;;;;;;;7.82;100.00;96920.88;5074135;28;20045;-72
2023/01/07 01:31:45;;;;;;;;;;;;;;;7.80;100.00;96923.66;5074703;28;19987;-72
2023/01/07 01:34:11;;;;;;;;;;;;;;;7.80;100.00;96920.25;5074074;28;19951;-72
2023/01/07 01:36:37;;;;;;;;;;;;;;;7.80;100.00;96913.22;5074389;28;20009;-72
2023/01/07 01:39:03;;;;;;;;;;;;;;;7.79;100.00;96914.22;5073505;28;19984;-72
2023/01/07 01:41:29;;;;;;;;;;;;;;;7.79;100.00;96910.78;5073969;28;19971;-72
2023/01/07 01:43:55;;;;;;;;;;;;;;;7.78;100.00;96902.16;5074093;28;19996;-72
2023/01/07 01:46:36;;;;;;;;;;;;;;;7.75;100.00;96907.78;5074283;28;19956;-72
2023/01/07 01:49:22;;;;;;;;;;;;;;;7.71;100.00;96909.13;5073962;28;19949;-73
2023/01/07 01:51:54;;;;;;;;;;;;;;;7.68;100.00;96902.47;5073708;28;19940;-72
2023/01/07 01:54:20;;;;;;;;;;;;;;;7.66;100.00;96903.66;5074039;28;19945;-72
2023/01/07 01:56:48;;;;;;;;;;;;;;;7.62;100.00;96895.41;5074488;28;20309;-72
2023/01/07 01:59:17;;;;;;;;;;;;;;;7.58;100.00;96899.38;5073942;28;19949;-72
2023/01/07 02:01:43;;;;;;;;;;;;;;;7.57;100.00;96910.81;5074264;28;19965;-72
2023/01/07 02:04:11;;;;;;;;;;;;;;;7.57;100.00;96884.72;5073712;28;19949;-72
2023/01/07 02:06:39;;;;;;;;;;;;;;;7.54;100.00;96892.94;5073645;28;19949;-72
2023/01/07 02:09:05;;;;;;;;;;;;;;;7.53;100.00;96886.88;5073243;28;19951;-72
2023/01/07 02:11:45;;;;;;;;;;;;;;;7.55;100.00;96894.53;5074392;28;20459;-72
2023/01/07 02:14:16;;;;;;;;;;;;;;;7.57;100.00;96881.31;5073706;28;19959;-72
2023/01/07 02:16:54;;;;;;;;;;;;;;;7.57;100.00;96889.13;5073772;28;19948;-72
2023/01/07 02:19:23;;;;;;;;;;;;;;;7.59;100.00;96889.75;5073484;28;19956;-72
2023/01/07 02:21:55;;;;;;;;;;;;;;;7.60;100.00;96880.91;5073395;28;19967;-72
2023/01/07 02:24:39;;;;;;;;;;;;;;;7.60;100.00;96873.91;5073507;28;19937;-72
2023/01/07 02:27:05;;;;;;;;;;;;;;;7.62;100.00;96868.47;5073622;28;19957;-72
2023/01/07 02:29:46;;;;;;;;;;;;;;;7.62;100.00;96863.25;5073086;28;19950;-72
2023/01/07 02:32:21;;;;;;;;;;;;;;;7.61;100.00;96865.06;5059434;28;19954;-72
2023/01/07 02:34:53;;;;;;;;;;;;;;;7.61;100.00;96866.88;5073579;28;20412;-72
2023/01/07 02:37:22;;;;;;;;;;;;;;;7.59;100.00;96856.63;5073432;28;19967;-72
2023/01/07 02:40:03;;;;;;;;;;;;;;;7.60;100.00;96857.41;5073219;28;19967;-72
2023/01/07 02:42:36;;;;;;;;;;;;;;;7.60;100.00;96850.41;5073313;28;19989;-72
2023/01/07 02:45:04;;;;;;;;;;;;;;;7.60;100.00;96853.03;5073597;28;19967;-72
2023/01/07 02:47:37;;;;;;;;;;;;;;;7.61;100.00;96848.59;5073358;28;20401;-72
2023/01/07 02:50:05;;;;;;;;;;;;;;;7.61;100.00;96841.56;5073385;28;19968;-72
2023/01/07 02:52:32;;;;;;;;;;;;;;;7.62;100.00;96837.16;5076531;28;20398;-72
2023/01/07 02:54:58;;;;;;;;;;;;;;;7.59;100.00;96838.34;5076002;28;19955;-72
2023/01/07 02:57:30;;;;;;;;;;;;;;;7.60;100.00;96826.94;5077371;28;20013;-72
2023/01/07 03:00:07;;;;;;;;;;;;;;;7.59;100.00;96829.72;5077157;28;19950;-72
2023/01/07 03:02:33;;;;;;;;;;;;;;;7.60;100.00;96828.72;5077424;28;19958;-72
2023/01/07 03:05:04;;;;;;;;;;;;;;;7.57;100.00;96823.88;5076974;28;19951;-72
2023/01/07 03:07:30;;;;;;;;;;;;;;;7.53;100.00;96820.84;5078012;28;19946;-72
2023/01/07 03:10:04;;;;;;;;;;;;;;;7.48;100.00;96812.78;5077131;28;20008;-72
2023/01/07 03:12:32;;;;;;;;;;;;;;;7.44;100.00;96816.75;5077114;28;19948;-72
2023/01/07 03:14:58;;;;;;;;;;;;;;;7.43;100.00;96820.34;5076464;28;19953;-72
2023/01/07 03:17:26;;;;;;;;;;;;;;;7.44;100.00;96822.78;5076863;28;19940;-72
2023/01/07 03:19:55;;;;;;;;;;;;;;;7.46;100.00;96817.38;5076907;28;19940;-72
2023/01/07 03:22:22;;;;;;;;;;;;;;;7.46;100.00;96804.34;5077073;28;19960;-72
2023/01/07 03:24:50;;;;;;;;;;;;;;;7.44;100.00;96798.50;5076693;28;19943;-72
2023/01/07 03:27:18;;;;;;;;;;;;;;;7.42;100.00;96801.28;5076624;28;20292;-72
2023/01/07 03:29:46;;;;;;;;;;;;;;;7.39;100.00;96800.84;5076941;28;19960;-72
2023/01/07 03:32:16;;;;;;;;;;;;;;;7.37;100.00;96798.44;5076564;28;20081;-73
2023/01/07 03:34:42;;;;;;;;;;;;;;;7.38;100.00;96792.22;5075270;28;19944;-72
2023/01/07 03:37:09;;;;;;;;;;;;;;;7.38;100.00;96791.41;5077208;28;19949;-72
2023/01/07 03:39:38;;;;;;;;;;;;;;;7.40;100.00;96792.03;5076297;28;19944;-72
2023/01/07 03:44:52;;;;;;;;;;;;;;;7.43;100.00;96792.47;5076358;28;19968;-72
2023/01/07 03:47:18;;;;;;;;;;;;;;;7.42;100.00;96779.59;5076430;28;20456;-72
2023/01/07 03:49:44;;;;;;;;;;;;;;;7.42;100.00;96779.59;5076782;28;19950;-72
2023/01/07 03:52:10;;;;;;;;;;;;;;;7.41;100.00;96784.03;5075403;28;19986;-72
2023/01/07 03:54:36;;;;;;;;;;;;;;;7.42;100.00;96777.81;5076203;28;20402;-72
2023/01/07 03:57:02;;;;;;;;;;;;;;;7.40;100.00;96771.16;5075844;28;20411;-72
2023/01/07 03:59:28;;;;;;;;;;;;;;;7.40;100.00;96769.34;5076194;28;19974;-72
2023/01/07 04:01:54;;;;;;;;;;;;;;;7.37;100.00;96769.75;5075360;28;20024;-72
2023/01/07 04:04:19;;;;;;;;;;;;;;;7.29;100.00;96759.44;5076423;28;20046;-73
2023/01/07 04:06:46;;;;;;;;;;;;;;;7.24;100.00;96761.78;5075965;28;19943;-72
2023/01/07 04:09:13;;;;;;;;;;;;;;;7.20;100.00;96763.16;5075692;28;19949;-72
2023/01/07 04:11:40;;;;;;;;;;;;;;;7.21;100.00;96759.59;5075805;28;19955;-72
2023/01/07 04:14:06;;;;;;;;;;;;;;;7.16;98.87;96734.06;5076128;28;19951;-72
2023/01/07 04:16:32;;;;;;;;;;;;;;;7.15;99.61;96742.88;5075684;28;19962;-72
2023/01/07 04:18:57;;;;;;;;;;;;;;;7.13;100.00;96752.69;5076081;28;19947;-72
2023/01/07 04:21:23;;;;;;;;;;;;;;;7.15;100.00;96755.13;5075565;28;19958;-72
2023/01/07 04:23:49;;;;;;;;;;;;;;;7.16;100.00;96748.88;5075726;28;19978;-72
2023/01/07 04:26:15;;;;;;;;;;;;;;;7.17;100.00;96748.72;5074320;28;19994;-72
2023/01/07 04:28:41;;;;;;;;;;;;;;;7.21;100.00;96749.16;5076190;28;19951;-72
2023/01/07 04:31:07;;;;;;;;;;;;;;;7.22;100.00;96751.53;5075893;28;20426;-72
2023/01/07 04:33:33;;;;;;;;;;;;;;;7.23;100.00;96744.56;5076014;28;20356;-72
2023/01/07 04:35:58;;;;;;;;;;;;;;;7.21;100.00;96734.28;5075348;28;20355;-72
2023/01/07 04:38:24;;;;;;;;;;;;;;;7.19;100.00;96741.50;5075457;28;20264;-72
2023/01/07 04:40:50;;;;;;;;;;;;;;;7.20;100.00;96735.31;5075348;28;19975;-72
2023/01/07 04:43:16;;;;;;;;;;;;;;;7.21;100.00;96728.28;5074655;28;19958;-72
2023/01/07 04:45:42;;;;;;;;;;;;;;;7.22;100.00;96722.06;5075831;28;19946;-72
2023/01/07 04:48:08;;;;;;;;;;;;;;;7.23;100.00;96724.47;5075425;28;19982;-72
2023/01/07 04:50:34;;;;;;;;;;;;;;;7.23;100.00;96718.47;5073896;28;19947;-72
2023/01/07 04:53:00;;;;;;;;;;;;;;;7.25;100.00;96721.69;5075217;28;20046;-73
2023/01/07 04:55:26;;;;;;;;;;;;;;;7.24;100.00;96723.47;5074836;28;19949;-73
2023/01/07 04:57:52;;;;;;;;;;;;;;;7.22;100.00;96717.63;5074858;28;19950;-72
2023/01/07 05:00:17;;;;;;;;;;;;;;;7.20;100.00;96714.44;5075326;28;19953;-72
2023/01/07 05:02:43;;;;;;;;;;;;;;;7.21;100.00;96710.81;5075171;28;20008;-72
2023/01/07 05:05:09;;;;;;;;;;;;;;;7.22;100.00;96709.00;5074662;28;19957;-72
2023/01/07 05:07:35;;;;;;;;;;;;;;;7.20;100.00;96708.38;5075047;28;19951;-72
2023/01/07 05:10:01;;;;;;;;;;;;;;;7.20;100.00;96700.56;5074819;28;19960;-72
2023/01/07 05:12:27;;;;;;;;;;;;;;;7.19;100.00;96694.56;5075032;28;19990;-72
2023/01/07 05:14:53;;;;;;;;;;;;;;;7.19;100.00;96698.97;5073933;28;20023;-73
2023/01/07 05:17:19;;;;;;;;;;;;;;;7.18;100.00;96694.75;5074565;28;19979;-72
2023/01/07 05:19:44;;;;;;;;;;;;;;;7.16;100.00;96687.13;5074394;28;19955;-73
2023/01/07 05:22:10;;;;;;;;;;;;;;;7.16;100.00;96694.94;5074502;28;20011;-72
2023/01/07 05:24:36;;;;;;;;;;;;;;;7.18;100.00;96698.16;5074293;28;19949;-72
2023/01/07 05:27:02;;;;;;;;;;;;;;;7.17;100.00;96691.31;5075271;28;19949;-72
2023/01/07 05:29:28;;;;;;;;;;;;;;;7.18;100.00;96685.13;5074694;28;20044;-72
2023/01/07 05:31:54;;;;;;;;;;;;;;;7.18;100.00;96687.75;5073992;28;20322;-72
2023/01/07 05:34:20;;;;;;;;;;;;;;;7.18;100.00;96679.09;5074474;28;19951;-72
2023/01/07 05:36:45;;;;;;;;;;;;;;;7.16;99.53;96671.47;5074440;28;19947;-72
2023/01/07 05:39:11;;;;;;;;;;;;;;;7.13;99.13;96673.66;5074261;28;20358;-72
2023/01/07 05:41:37;;;;;;;;;;;;;;;7.08;100.00;96677.63;5055968;28;19970;-72
2023/01/07 05:44:03;;;;;;;;;;;;;;;7.07;99.74;96670.78;5074376;28;19956;-72
2023/01/07 05:46:29;;;;;;;;;;;;;;;7.06;99.97;96673.59;5074358;28;19956;-72
2023/01/07 05:48:55;;;;;;;;;;;;;;;7.05;99.35;96671.97;5073027;28;19992;-72
2023/01/07 05:51:21;;;;;;;;;;;;;;;7.04;98.75;96663.34;5074071;28;19953;-72
2023/01/07 05:53:47;;;;;;;;;;;;;;;6.99;98.72;96665.75;5073787;28;19950;-72
2023/01/07 05:56:12;;;;;;;;;;;;;;;6.96;99.63;96666.09;5073733;28;19957;-72
2023/01/07 05:58:38;;;;;;;;;;;;;;;6.97;99.75;96664.28;5074211;28;20006;-72
2023/01/07 06:01:04;;;;;;;;;;;;;;;6.99;99.97;96664.91;5074204;28;19958;-72
2023/01/07 06:03:30;;;;;;;;;;;;;;;6.99;100.00;96664.91;5073731;28;20042;-72
2023/01/07 06:05:56;;;;;;;;;;;;;;;7.00;97.50;96643.06;5074081;28;19980;-72
2023/01/07 06:08:22;;;;;;;;;;;;;;;6.99;98.77;96657.09;5073712;28;19951;-72
2023/01/07 06:10:48;;;;;;;;;;;;;;;6.99;99.31;96654.47;5074435;28;19951;-72
2023/01/07 06:13:14;;;;;;;;;;;;;;;7.00;99.86;96664.72;5072345;28;20005;-72
2023/01/07 06:15:40;;;;;;;;;;;;;;;7.03;99.19;96655.72;5073703;28;20039;-72
2023/01/07 06:18:06;;;;;;;;;;;;;;;7.03;99.02;96653.91;5073625;28;20411;-72
2023/01/07 06:20:35;;;;;;;;;;;;;;;7.04;97.15;96641.69;5073433;28;20367;-72
2023/01/07 06:23:03;;;;;;;;;;;;;;;7.01;96.93;96647.28;5072181;28;19960;-72
2023/01/07 06:25:29;;;;;;;;;;;;;;;6.96;96.43;96639.22;5073473;28;19955;-72
2023/01/07 06:27:56;;;;;;;;;;;;;;;6.93;97.22;96639.59;5073681;28;20042;-72
2023/01/07 06:30:22;;;;;;;;;;;;;;;6.91;97.88;96643.22;5073667;28;19950;-72
2023/01/07 06:32:48;;;;;;;;;;;;;;;6.94;98.79;96646.44;5073370;28;19954;-72
2023/01/07 06:35:14;;;;;;;;;;;;;;;6.97;99.39;96648.66;5073547;28;19943;-72
2023/01/07 06:37:40;;;;;;;;;;;;;;;6.98;99.63;96645.88;5073345;28;20008;-73
2023/01/07 06:40:06;;;;;;;;;;;;;;;6.99;99.17;96642.28;5073507;28;19972;-73
2023/01/07 06:42:32;;;;;;;;;;;;;;;7.01;99.19;96634.25;5073337;28;19974;-72
2023/01/07 06:44:58;;;;;;;;;;;;;;;7.02;99.37;96630.66;5073424;28;20035;-74
2023/01/07 06:47:24;;;;;;;;;;;;;;;7.02;99.51;96626.22;5072302;28;19950;-72
2023/01/07 06:49:50;;;;;;;;;;;;;;;7.04;99.78;96629.47;5073248;28;19952;-74
2023/01/07 06:52:16;;;;;;;;;;;;;;;7.05;100.00;96625.03;5073471;28;20283;-72
2023/01/07 06:54:42;;;;;;;;;;;;;;;7.07;100.00;96623.84;5073346;28;19987;-72
2023/01/07 06:57:08;;;;;;;;;;;;;;;7.05;99.81;96618.00;5073299;28;19949;-72
2023/01/07 06:59:34;;;;;;;;;;;;;;;7.07;99.43;96623.84;5073554;28;19947;-72
2023/01/07 07:02:00;;;;;;;;;;;;;;;7.06;99.68;96611.03;5073097;28;20020;-72
2023/01/07 07:04:25;;;;;;;;;;;;;;;7.07;99.57;96618.63;5073272;28;19952;-73
2023/01/07 07:06:51;;;;;;;;;;;;;;;7.07;99.64;96618.63;5073021;28;20642;-72
2023/01/07 07:09:17;;;;;;;;;;;;;;;7.09;99.37;96618.44;5073147;28;19975;-72
2023/01/07 07:11:43;;;;;;;;;;;;;;;7.08;99.53;96609.81;5073026;28;20473;-72
2023/01/07 07:14:09;;;;;;;;;;;;;;;7.06;97.70;96600.59;5073223;28;20322;-72
2023/01/07 07:16:35;;;;;;;;;;;;;;;7.04;98.85;96615.63;5073101;28;20307;-73
2023/01/07 07:19:01;;;;;;;;;;;;;;;7.03;98.93;96612.19;5073187;28;20040;-73
2023/01/07 07:21:26;;;;;;;;;;;;;;;7.03;98.81;96608.78;5072815;28;19950;-72
2023/01/07 07:23:52;;;;;;;;;;;;;;;7.02;98.52;96607.19;5073434;28;20002;-73
2023/01/07 07:26:18;;;;;;;;;;;;;;;7.00;98.21;96598.75;5072911;28;20052;-72
2023/01/07 07:28:44;;;;;;;;;;;;;;;6.97;98.00;96599.94;5072987;28;19980;-72
2023/01/07 07:31:10;;;;;;;;;;;;;;;6.95;98.44;96603.72;5072916;28;19957;-72
2023/01/07 07:33:36;;;;;;;;;;;;;;;6.91;98.40;96598.88;5073068;28;19969;-73
2023/01/07 07:36:02;;;;;;;;;;;;;;;6.89;97.92;96595.66;5072978;28;19951;-72
2023/01/07 07:38:28;;;;;;;;;;;;;;;6.87;98.34;96591.66;5075843;28;19958;-72
2023/01/07 07:40:55;;;;;;;;;;;;;;;6.85;97.86;96584.00;5075847;28;19981;-72
2023/01/07 07:43:21;;;;;;;;;;;;;;;6.84;98.97;96592.00;5076293;28;20361;-72
2023/01/07 07:45:47;;;;;;;;;;;;;;;6.83;98.71;96587.81;5076444;28;19948;-72
2023/01/07 07:48:13;;;;;;;;;;;;;;;6.79;97.73;96589.97;5076176;28;20454;-73
2023/01/07 07:50:40;;;;;;;;;;;;;;;6.78;99.22;96590.97;5076319;28;19952;-72
2023/01/07 07:53:08;;;;;;;;;;;;;;;6.79;99.27;96583.97;5076195;28;19950;-72
2023/01/07 07:55:38;;;;;;;;;;;;;;;6.77;97.92;96578.94;5076112;28;20453;-72
2023/01/07 07:58:04;;;;;;;;;;;;;;;6.69;98.45;96579.06;5076316;28;19953;-72
2023/01/07 08:00:30;;;;;;;;;;;;;;;6.68;99.75;96586.09;5075943;28;20281;-72
2023/01/07 08:02:57;;;;;;;;;;;;;;;6.68;99.14;96577.47;5075878;28;20027;-73
2023/01/07 08:05:23;;;;;;;;;;;;;;;6.67;99.59;96579.25;5076077;28;20395;-72
2023/01/07 08:07:49;;;;;;;;;;;;;;;6.72;100.00;96583.94;5075886;28;19958;-72
2023/01/07 08:10:15;;;;;;;;;;;;;;;6.75;100.00;96583.53;5076424;28;20041;-72
2023/01/07 08:12:40;;;;;;;;;;;;;;;6.77;100.00;96586.75;5076062;28;19956;-72
2023/01/07 08:15:07;;;;;;;;;;;;;;;6.80;100.00;96583.75;5076160;28;20005;-72
2023/01/07 08:17:35;;;;;;;;;;;;;;;6.79;100.00;96587.38;5075457;28;19939;-72
2023/01/07 08:20:01;;;;;;;;;;;;;;;6.79;100.00;96586.56;5075830;28;19956;-72
2023/01/07 08:22:27;;;;;;;;;;;;;;;6.78;99.97;96584.94;5075602;28;19971;-72
2023/01/07 08:24:52;;;;;;;;;;;;;;;6.76;100.00;96587.78;5076035;28;19954;-72
2023/01/07 08:27:18;;;;;;;;;;;;;;;6.75;100.00;96583.53;5075491;28;20000;-72
2023/01/07 08:29:44;;;;;;;;;;;;;;;6.71;99.58;96570.06;5075555;28;20047;-72
2023/01/07 08:32:10;;;;;;;;;;;;;;;6.68;99.96;96574.88;5075346;28;19958;-72
2023/01/07 08:34:36;;;;;;;;;;;;;;;6.68;100.00;96573.06;5075506;28;20310;-72
2023/01/07 08:37:02;;;;;;;;;;;;;;;6.65;100.00;96575.25;5075273;28;19986;-72
2023/01/07 08:39:28;;;;;;;;;;;;;;;6.64;100.00;96569.22;5075429;28;20413;-72
2023/01/07 08:41:54;;;;;;;;;;;;;;;6.66;100.00;96567.25;5075462;28;19976;-72
2023/01/07 08:44:20;;;;;;;;;;;;;;;6.67;99.88;96568.03;5075289;28;19953;-73
2023/01/07 08:46:45;;;;;;;;;;;;;;;6.68;100.00;96567.06;5075408;28;19948;-72
2023/01/07 08:49:11;;;;;;;;;;;;;;;6.68;98.89;96559.25;5075201;28;20033;-72
2023/01/07 08:51:37;;;;;;;;;;;;;;;6.71;99.90;96562.25;5075423;28;19948;-72
2023/01/07 08:54:03;;;;;;;;;;;;;;;6.72;98.23;96552.66;5075088;28;19982;-72
2023/01/07 08:56:29;;;;;;;;;;;;;;;6.78;98.74;96554.47;5075203;28;19956;-72
2023/01/07 08:58:55;;;;;;;;;;;;;;;6.80;98.96;96557.69;5073801;28;20050;-72
2023/01/07 09:01:21;;;;;;;;;;;;;;;6.83;98.13;96548.72;5074761;28;19958;-72
2023/01/07 09:03:47;;;;;;;;;;;;;;;6.83;98.36;96549.50;5074870;28;20454;-72
2023/01/07 09:06:12;;;;;;;;;;;;;;;6.86;97.67;96543.91;5073965;28;19951;-72
2023/01/07 09:08:39;;;;;;;;;;;;;;;6.88;97.51;96541.91;5075081;28;20396;-73
2023/01/07 09:11:05;;;;;;;;;;;;;;;6.92;98.17;96552.75;5074991;28;19970;-72
2023/01/07 09:13:31;;;;;;;;;;;;;;;7.01;98.15;96543.78;5074746;28;19955;-72
2023/01/07 09:15:58;;;;;;;;;;;;;;;7.06;97.42;96549.25;5074742;28;20328;-72
2023/01/07 09:18:23;;;;;;;;;;;;;;;7.10;98.25;96552.28;5074715;28;19951;-74
2023/01/07 09:20:49;;;;;;;;;;;;;;;7.13;98.06;96548.47;5074722;28;20398;-72
2023/01/07 09:23:15;;;;;;;;;;;;;;;7.13;96.63;96536.22;5074267;28;20333;-72
2023/01/07 09:25:41;;;;;;;;;;;;;;;7.10;95.61;96534.81;5074749;28;19946;-72
2023/01/07 09:28:07;;;;;;;;;;;;;;;7.08;96.70;96536.81;5073095;28;19951;-72
2023/01/07 09:30:33;;;;;;;;;;;;;;;7.11;96.97;96540.81;5074575;28;19971;-72
2023/01/07 09:32:59;;;;;;;;;;;;;;;7.08;96.47;96539.41;5074325;28;19981;-72
2023/01/07 09:35:25;;;;;;;;;;;;;;;7.13;96.80;96541.44;5074275;28;19950;-73
2023/01/07 09:37:51;;;;;;;;;;;;;;;7.13;95.24;96535.44;5074333;28;19954;-72
2023/01/07 09:40:28;;;;;;;;;;;;;;;7.11;95.59;96543.44;5074255;28;19966;-72
2023/01/07 09:43:07;;;;;;;;;;;;;;;7.14;96.16;96548.28;5073159;28;19962;-72
2023/01/07 09:45:36;;;;;;;;;;;;;;;7.26;95.84;96536.28;5074195;28;19951;-72
2023/01/07 09:48:08;;;;;;;;;;;;;;;7.41;94.04;96514.47;5074174;28;20454;-72
2023/01/07 09:50:41;;;;;;;;;;;;;;;7.71;93.25;96513.16;5073941;28;19939;-72
2023/01/07 09:53:28;;;;;;;;;;;;;;;7.99;93.23;96512.19;5073258;28;19960;-73
2023/01/07 09:55:54;;;;;;;;;;;;;;;8.23;89.75;96483.84;5062708;28;19946;-73
2023/01/07 09:58:20;;;;;;;;;;;;;;;8.46;89.29;96481.66;5073727;28;19961;-72
2023/01/07 10:00:54;;;;;;;;;;;;;;;8.62;85.86;96454.28;5073968;28;19945;-72
2023/01/07 10:03:32;;;;;;;;;;;;;;;8.79;85.92;96454.63;5073830;28;19958;-72
2023/01/07 10:06:28;;;;;;;;;;;;;;;9.03;84.61;96442.69;5073822;28;20410;-72
2023/01/07 10:08:53;;;;;;;;;;;;;;;9.20;83.98;96439.56;5046516;28;19957;-72
2023/01/07 10:11:28;;;;;;;;;;;;;;;9.30;82.87;96426.84;5073696;28;19978;-73
2023/01/07 10:13:54;;;;;;;;;;;;;;;9.45;83.41;96427.38;5074007;28;19952;-72
2023/01/07 10:16:30;;;;;;;;;;;;;;;9.54;83.84;96427.91;5073746;28;19973;-72
2023/01/07 10:18:59;;;;;;;;;;;;;;;9.55;80.53;96400.72;5064456;28;19959;-72
2023/01/07 10:21:40;;;;;;;;;;;;;;;9.32;80.20;96394.25;5073741;28;19951;-73
2023/01/07 10:24:19;;;;;;;;;;;;;;;9.39;81.42;96402.03;5073480;28;20467;-73
2023/01/07 10:26:48;;;;;;;;;;;;;;;9.57;83.36;96408.38;5065287;28;19951;-72
2023/01/07 10:29:33;;;;;;;;;;;;;;;9.58;80.88;96381.19;5073642;28;19944;-72
2023/01/07 10:32:02;;;;;;;;;;;;;;;9.42;79.14;96377.25;5073620;28;19966;-72
2023/01/07 10:34:30;;;;;;;;;;;;;;;9.23;81.47;96395.47;5073484;28;19956;-73
2023/01/07 10:36:55;;;;;;;;;;;;;;;9.06;82.68;96415.31;5073627;28;19946;-73
2023/01/07 10:39:30;;;;;;;;;;;;;;;8.94;81.96;96402.91;5073251;28;19978;-72
2023/01/07 10:42:19;;;;;;;;;;;;;;;8.84;83.44;96407.75;5073401;28;20395;-72
2023/01/07 10:44:57;;;;;;;;;;;;;;;8.89;82.53;96399.28;5059368;28;20313;-72
2023/01/07 10:47:23;;;;;;;;;;;;;;;8.80;84.21;96401.34;5073251;28;19956;-73
2023/01/07 10:50:07;;;;;;;;;;;;;;;8.88;82.87;96392.44;5073340;28;19942;-72
2023/01/07 10:52:52;;;;;;;;;;;;;;;9.04;81.79;96365.81;5073243;28;20016;-72
2023/01/07 10:55:33;;;;;;;;;;;;;;;9.12;82.63;96362.94;5073274;28;19942;-72
2023/01/07 10:57:59;;;;;;;;;;;;;;;9.30;83.03;96361.41;5073089;28;19961;-72
2023/01/07 11:00:25;;;;;;;;;;;;;;;9.42;82.39;96361.56;5073488;28;20461;-72
2023/01/07 11:02:53;;;;;;;;;;;;;;;9.46;80.27;96336.56;5073224;28;19960;-72
2023/01/07 11:05:20;;;;;;;;;;;;;;;9.53;80.70;96332.06;5072630;28;19965;-72
2023/01/07 11:07:51;;;;;;;;;;;;;;;9.50;79.45;96314.19;5073353;28;19964;-72
2023/01/07 11:10:21;;;;;;;;;;;;;;;9.47;78.53;96309.34;5072787;28;19956;-73
2023/01/07 11:12:53;;;;;;;;;;;;;;;9.52;80.25;96322.63;5060888;28;19972;-72
2023/01/07 11:15:22;;;;;;;;;;;;;;;9.59;81.32;96325.97;5077221;28;19942;-72
2023/01/07 11:17:53;;;;;;;;;;;;;;;9.70;79.65;96309.56;5076862;28;19962;-73
2023/01/07 11:20:38;;;;;;;;;;;;;;;9.71;77.40;96287.59;5077004;28;20301;-72
2023/01/07 11:23:22;;;;;;;;;;;;;;;9.79;79.41;96311.94;5076582;28;19961;-72
2023/01/07 11:25:48;;;;;;;;;;;;;;;9.88;78.49;96298.31;5077081;28;19950;-75
2023/01/07 11:28:18;;;;;;;;;;;;;;;9.80;77.46;96287.31;5076148;28;19945;-73
2023/01/07 11:30:54;;;;;;;;;;;;;;;9.70;75.95;96261.63;5077008;28;19944;-72
2023/01/07 11:33:23;;;;;;;;;;;;;;;9.66;77.76;96273.53;5062940;28;20420;-73
2023/01/07 11:35:53;;;;;;;;;;;;;;;9.61;78.18;96279.44;5076504;28;19949;-72
2023/01/07 11:38:27;;;;;;;;;;;;;;;9.71;78.91;96279.75;5075960;28;19946;-72
2023/01/07 11:40:58;;;;;;;;;;;;;;;9.67;77.78;96268.09;5068397;28;19985;-74
2023/01/07 11:43:29;;;;;;;;;;;;;;;9.61;75.73;96244.59;5063469;28;19964;-72
2023/01/07 11:45:57;;;;;;;;;;;;;;;9.66;77.36;96252.59;5076300;28;19951;-72
2023/01/07 11:48:33;;;;;;;;;;;;;;;9.62;77.83;96264.56;5076198;28;19957;-73
2023/01/07 11:51:01;;;;;;;;;;;;;;;9.57;78.62;96267.78;5076631;28;19952;-72
2023/01/07 11:53:38;;;;;;;;;;;;;;;9.65;78.67;96248.38;5075204;28;19939;-73
2023/01/07 11:56:05;;;;;;;;;;;;;;;9.78;78.32;96250.06;5076383;28;20319;-73
2023/01/07 11:58:35;;;;;;;;;;;;;;;9.72;77.94;96243.88;5076010;28;19951;-72
2023/01/07 12:01:02;;;;;;;;;;;;;;;9.77;78.49;96238.81;5075573;28;19938;-73
2023/01/07 12:03:28;;;;;;;;;;;;;;;9.67;77.91;96228.81;5076378;28;20320;-72
2023/01/07 12:05:55;;;;;;;;;;;;;;;9.61;78.55;96237.53;5076208;28;20033;-72
2023/01/07 12:08:21;;;;;;;;;;;;;;;9.57;79.64;96235.56;5076061;28;20328;-72
2023/01/07 12:10:54;;;;;;;;;;;;;;;9.61;78.71;96228.91;5075607;28;19949;-73
2023/01/07 12:13:24;;;;;;;;;;;;;;;9.53;78.27;96214.25;5075902;28;19967;-73
2023/01/07 12:15:56;;;;;;;;;;;;;;;9.54;78.54;96206.19;5075828;28;19953;-72
2023/01/07 12:18:40;;;;;;;;;;;;;;;9.48;78.88;96209.69;5075902;28;19942;-73
2023/01/07 12:21:25;;;;;;;;;;;;;;;9.54;76.88;96189.69;5075335;28;19960;-73
2023/01/07 12:23:53;;;;;;;;;;;;;;;9.60;77.46;96191.44;5075172;28;19958;-72
2023/01/07 12:26:49;;;;;;;;;;;;;;;9.68;77.92;96182.50;5076001;28;19953;-72
2023/01/07 12:29:20;;;;;;;;;;;;;;;9.78;78.84;96177.53;4995114;28;19945;-73
2023/01/07 12:31:46;;;;;;;;;;;;;;;9.82;77.51;96165.63;5075638;28;19953;-72
2023/01/07 12:34:28;;;;;;;;;;;;;;;9.81;76.93;96155.38;5075453;28;19949;-72
2023/01/07 12:36:59;;;;;;;;;;;;;;;9.70;75.94;96142.00;5075020;28;19957;-73
2023/01/07 12:39:34;;;;;;;;;;;;;;;9.58;76.45;96143.75;5075398;28;20000;-73
2023/01/07 12:42:17;;;;;;;;;;;;;;;9.55;78.21;96150.22;5075292;28;20292;-72
2023/01/07 12:44:48;;;;;;;;;;;;;;;9.50;78.70;96154.50;5074407;28;20314;-72
2023/01/07 12:47:17;;;;;;;;;;;;;;;9.54;78.03;96145.19;5075218;28;19948;-73
2023/01/07 12:49:48;;;;;;;;;;;;;;;9.54;77.67;96138.13;5075269;28;19943;-72
2023/01/07 12:52:17;;;;;;;;;;;;;;;9.60;77.93;96138.31;5075365;28;19969;-72
2023/01/07 12:55:00;;;;;;;;;;;;;;;9.70;77.12;96128.09;5074913;28;19946;-72
2023/01/07 12:57:26;;;;;;;;;;;;;;;9.74;75.96;96116.16;5075106;28;19944;-72
2023/01/07 13:00:15;;;;;;;;;;;;;;;9.75;76.53;96120.38;5074611;28;19947;-72
2023/01/07 13:02:43;;;;;;;;;;;;;;;9.74;75.21;96100.44;5074870;28;19940;-72
2023/01/07 13:05:15;;;;;;;;;;;;;;;9.74;76.36;96113.53;5074671;28;19943;-73